Time;durP1;ratioP1;P1;durP2;ratioP2;P2;SDS_P1;SDS_P2;PMS_P1;PMS_P2;Temp;Humidity;BMP_temperature;BMP_pressure;BME280_temperature;BME280_humidity;BME280_pressure;Samples;Min_cycle;Max_cycle;Signal;HPM_P1;HPM_P2
2022/03/27 00:00:56;;;;;;;12.70;7.10;;;;;;;;;;5101342;27;20135;-63
2022/03/27 00:03:22;;;;;;;13.88;7.47;;;;;;;;;;5097046;28;20123;-64
2022/03/27 00:05:49;;;;;;;13.98;8.35;;;;;;;;;;5103694;28;20094;-64
2022/03/27 00:08:15;;;;;;;15.82;9.23;;;;;;;;;;5077033;28;20153;-64
2022/03/27 00:13:26;;;;;;;15.05;8.57;;;;;;;;;;5104082;28;20532;-64
2022/03/27 00:15:53;;;;;;;13.57;8.50;;;;;;;;;;5093252;27;20057;-64
2022/03/27 00:18:19;;;;;;;13.52;7.75;;;;;;;;;;5106395;27;20147;-64
2022/03/27 00:20:46;;;;;;;14.15;8.23;;;;;;;;;;5089953;28;20156;-64
2022/03/27 00:23:13;;;;;;;13.75;8.75;;;;;;;;;;5101128;28;20058;-64
2022/03/27 00:25:39;;;;;;;15.32;9.27;;;;;;;;;;5085261;27;20048;-64
2022/03/27 00:28:05;;;;;;;15.13;9.65;;;;;;;;;;5105892;28;20056;-64
2022/03/27 00:30:32;;;;;;;18.45;9.80;;;;;;;;;;5095666;28;20155;-64
2022/03/27 00:32:58;;;;;;;14.57;8.65;;;;;;;;;;5100091;27;20044;-64
2022/03/27 00:35:25;;;;;;;18.20;10.88;;;;;;;;;;5103992;28;20663;-64
2022/03/27 00:37:52;;;;;;;17.35;10.05;;;;;;;;;;5087026;27;20136;-64
2022/03/27 00:40:19;;;;;;;18.60;9.90;;;;;;;;;;5105432;27;20130;-64
2022/03/27 00:42:45;;;;;;;18.60;10.30;;;;;;;;;;5097508;28;20052;-63
2022/03/27 00:45:12;;;;;;;18.15;10.30;;;;;;;;;;5098665;27;20152;-63
2022/03/27 00:47:38;;;;;;;17.63;10.45;;;;;;;;;;5104002;28;20557;-64
2022/03/27 00:50:05;;;;;;;18.25;11.18;;;;;;;;;;5092893;28;20530;-64
2022/03/27 00:52:31;;;;;;;19.13;11.60;;;;;;;;;;5104219;27;20577;-64
2022/03/27 00:54:58;;;;;;;22.27;12.25;;;;;;;;;;5081555;28;20148;-64
2022/03/27 00:57:25;;;;;;;23.35;12.18;;;;;;;;;;5096052;28;20078;-64
2022/03/27 00:59:51;;;;;;;23.13;12.15;;;;;;;;;;5092478;27;20582;-64
2022/03/27 01:02:20;;;;;;;21.45;12.38;;;;;;;;;;5093433;28;20593;-64
2022/03/27 01:04:47;;;;;;;19.08;10.52;;;;;;;;;;5101217;27;20508;-63
2022/03/27 01:07:17;;;;;;;20.80;11.85;;;;;;;;;;5101326;28;20105;-64
2022/03/27 01:09:44;;;;;;;21.60;11.45;;;;;;;;;;5092432;27;20091;-64
2022/03/27 01:12:22;;;;;;;21.35;11.82;;;;;;;;;;5094204;28;20143;-64
2022/03/27 01:14:50;;;;;;;20.05;10.52;;;;;;;;;;5099506;28;20147;-64
2022/03/27 01:17:18;;;;;;;17.95;11.35;;;;;;;;;;5091125;28;20052;-64
2022/03/27 01:19:48;;;;;;;18.38;10.60;;;;;;;;;;5091303;28;20130;-64
2022/03/27 01:22:15;;;;;;;17.80;10.05;;;;;;;;;;5076322;28;20531;-64
2022/03/27 01:24:42;;;;;;;15.48;9.50;;;;;;;;;;5099697;27;20052;-64
2022/03/27 01:27:08;;;;;;;16.30;9.50;;;;;;;;;;5090763;28;20510;-64
2022/03/27 01:29:35;;;;;;;15.98;9.32;;;;;;;;;;5094644;27;20140;-64
2022/03/27 01:32:03;;;;;;;18.88;9.68;;;;;;;;;;5105533;28;20117;-64
2022/03/27 01:34:30;;;;;;;18.02;9.38;;;;;;;;;;5094154;28;20074;-64
2022/03/27 01:37:00;;;;;;;15.52;9.65;;;;;;;;;;5099199;27;20135;-64
2022/03/27 01:39:26;;;;;;;17.23;9.43;;;;;;;;;;5090006;28;20061;-64
2022/03/27 01:41:52;;;;;;;19.40;10.07;;;;;;;;;;5105692;28;20815;-64
2022/03/27 01:44:20;;;;;;;19.73;10.60;;;;;;;;;;5092812;28;20062;-64
2022/03/27 01:46:47;;;;;;;19.15;10.73;;;;;;;;;;5094491;27;20048;-63
2022/03/27 01:49:15;;;;;;;19.70;10.95;;;;;;;;;;5096864;27;20052;-64
2022/03/27 01:51:42;;;;;;;19.08;9.50;;;;;;;;;;5103662;28;20907;-64
2022/03/27 01:54:09;;;;;;;19.52;10.48;;;;;;;;;;5091907;28;20152;-63
2022/03/27 01:56:38;;;;;;;18.48;10.07;;;;;;;;;;5102680;27;20143;-63
2022/03/27 01:59:05;;;;;;;19.55;9.63;;;;;;;;;;5098398;28;20864;-63
2022/03/27 02:01:32;;;;;;;18.63;9.93;;;;;;;;;;5094339;27;20152;-64
2022/03/27 02:03:59;;;;;;;18.88;10.68;;;;;;;;;;5076063;28;20053;-64
2022/03/27 02:06:25;;;;;;;19.13;10.35;;;;;;;;;;5103260;27;20139;-64
2022/03/27 02:08:51;;;;;;;17.83;9.43;;;;;;;;;;5096395;28;20142;-64
2022/03/27 02:11:18;;;;;;;16.23;9.27;;;;;;;;;;5095675;27;20135;-64
2022/03/27 02:13:45;;;;;;;17.90;9.90;;;;;;;;;;5103790;28;20070;-64
2022/03/27 02:16:11;;;;;;;14.98;8.07;;;;;;;;;;5090792;27;20135;-64
2022/03/27 02:18:41;;;;;;;16.13;8.73;;;;;;;;;;5101820;27;20538;-63
2022/03/27 02:21:08;;;;;;;16.27;9.05;;;;;;;;;;5091891;28;20087;-64
2022/03/27 02:23:34;;;;;;;16.63;8.43;;;;;;;;;;5094553;27;20136;-63
2022/03/27 02:26:00;;;;;;;16.45;8.90;;;;;;;;;;5082735;28;20155;-64
2022/03/27 02:28:27;;;;;;;18.50;9.30;;;;;;;;;;5103469;27;20052;-64
2022/03/27 02:30:53;;;;;;;15.27;8.70;;;;;;;;;;5096824;28;20161;-64
2022/03/27 02:33:20;;;;;;;17.48;9.10;;;;;;;;;;5094678;27;20061;-64
2022/03/27 02:35:46;;;;;;;17.98;9.32;;;;;;;;;;5104147;28;20772;-63
2022/03/27 02:38:13;;;;;;;18.88;9.68;;;;;;;;;;5089624;28;20601;-64
2022/03/27 02:40:40;;;;;;;19.00;9.90;;;;;;;;;;5101056;27;20151;-64
2022/03/27 02:43:07;;;;;;;20.63;9.40;;;;;;;;;;5098877;28;20134;-64
2022/03/27 02:45:33;;;;;;;18.35;9.70;;;;;;;;;;5094351;27;20063;-64
2022/03/27 02:48:00;;;;;;;20.20;9.90;;;;;;;;;;5104377;28;20058;-64
2022/03/27 02:50:28;;;;;;;19.60;9.98;;;;;;;;;;5092157;28;20147;-63
2022/03/27 02:52:55;;;;;;;19.27;10.20;;;;;;;;;;5099124;27;20082;-63
2022/03/27 02:55:22;;;;;;;18.63;10.05;;;;;;;;;;5094149;28;20490;-64
2022/03/27 02:57:49;;;;;;;20.15;9.77;;;;;;;;;;5091074;27;20049;-63
2022/03/27 03:00:16;;;;;;;19.05;9.35;;;;;;;;;;5074516;28;20943;-63
2022/03/27 03:02:43;;;;;;;22.15;10.30;;;;;;;;;;5100471;27;20063;-63
2022/03/27 03:05:09;;;;;;;18.33;9.35;;;;;;;;;;5087978;28;20048;-63
2022/03/27 03:07:42;;;;;;;18.10;9.25;;;;;;;;;;5103137;28;20083;-63
2022/03/27 03:10:09;;;;;;;15.23;7.85;;;;;;;;;;5088552;27;20517;-63
2022/03/27 03:12:38;;;;;;;15.60;7.78;;;;;;;;;;5080766;28;20083;-64
2022/03/27 03:15:05;;;;;;;13.98;8.18;;;;;;;;;;5097047;27;20128;-63
2022/03/27 03:17:31;;;;;;;15.40;8.35;;;;;;;;;;5101138;28;20054;-63
2022/03/27 03:19:57;;;;;;;14.07;7.43;;;;;;;;;;5090824;27;20053;-63
2022/03/27 03:22:24;;;;;;;16.13;8.32;;;;;;;;;;5102169;27;20051;-63
2022/03/27 03:24:51;;;;;;;14.70;7.35;;;;;;;;;;5095853;28;20052;-64
2022/03/27 03:27:17;;;;;;;13.90;7.53;;;;;;;;;;5096851;27;20166;-63
2022/03/27 03:29:43;;;;;;;12.57;6.65;;;;;;;;;;5102132;28;20139;-63
2022/03/27 03:32:10;;;;;;;13.60;7.00;;;;;;;;;;5094514;27;20550;-64
2022/03/27 03:34:36;;;;;;;12.43;6.70;;;;;;;;;;5104776;27;20584;-63
2022/03/27 03:37:03;;;;;;;13.02;7.03;;;;;;;;;;5099767;28;20536;-64
2022/03/27 03:39:29;;;;;;;14.13;7.43;;;;;;;;;;5096778;27;20066;-64
2022/03/27 03:41:56;;;;;;;13.48;6.57;;;;;;;;;;5107202;28;20190;-63
2022/03/27 03:44:24;;;;;;;13.02;7.22;;;;;;;;;;5089315;28;20052;-63
2022/03/27 03:46:50;;;;;;;12.80;7.07;;;;;;;;;;5070083;28;20079;-63
2022/03/27 03:49:17;;;;;;;12.05;7.25;;;;;;;;;;5095526;28;20056;-64
2022/03/27 03:51:43;;;;;;;13.50;6.97;;;;;;;;;;5094558;27;20171;-65
2022/03/27 03:54:09;;;;;;;13.30;7.35;;;;;;;;;;5107636;28;20048;-63
2022/03/27 03:56:38;;;;;;;14.40;7.82;;;;;;;;;;5097218;28;20461;-64
2022/03/27 03:59:04;;;;;;;14.05;7.38;;;;;;;;;;5100054;27;20067;-64
2022/03/27 04:01:50;;;;;;;12.77;6.75;;;;;;;;;;5098921;28;20495;-63
2022/03/27 04:04:17;;;;;;;13.00;7.20;;;;;;;;;;5106002;27;20048;-63
2022/03/27 04:06:44;;;;;;;12.10;6.55;;;;;;;;;;5097440;28;20213;-63
2022/03/27 04:09:10;;;;;;;12.07;6.55;;;;;;;;;;5099358;27;20577;-63
2022/03/27 04:11:37;;;;;;;12.30;6.82;;;;;;;;;;5105457;28;20139;-63
2022/03/27 04:14:04;;;;;;;13.75;7.30;;;;;;;;;;5093199;27;20060;-63
2022/03/27 04:16:31;;;;;;;13.03;6.37;;;;;;;;;;5104682;27;20449;-63
2022/03/27 04:18:57;;;;;;;12.93;7.00;;;;;;;;;;5087234;28;20143;-63
2022/03/27 04:21:24;;;;;;;13.88;7.10;;;;;;;;;;5103283;28;20044;-63
2022/03/27 04:23:50;;;;;;;13.30;7.45;;;;;;;;;;5093686;27;20503;-64
2022/03/27 04:26:17;;;;;;;11.20;6.57;;;;;;;;;;5107745;27;20059;-63
2022/03/27 04:28:43;;;;;;;13.48;7.88;;;;;;;;;;5100343;28;20491;-63
2022/03/27 04:31:09;;;;;;;14.23;7.22;;;;;;;;;;5100847;28;20127;-63
2022/03/27 04:33:36;;;;;;;13.38;7.70;;;;;;;;;;5095814;27;20044;-63
2022/03/27 04:36:04;;;;;;;14.15;6.97;;;;;;;;;;5094525;28;20519;-63
2022/03/27 04:38:30;;;;;;;12.63;6.43;;;;;;;;;;5103801;27;20499;-63
2022/03/27 04:40:56;;;;;;;12.20;6.22;;;;;;;;;;5098630;28;20058;-63
2022/03/27 04:43:23;;;;;;;11.20;6.32;;;;;;;;;;5097077;27;20052;-63
2022/03/27 04:45:50;;;;;;;10.70;5.82;;;;;;;;;;5105898;28;20143;-63
2022/03/27 04:48:16;;;;;;;12.25;7.07;;;;;;;;;;5077386;28;20047;-63
2022/03/27 04:50:44;;;;;;;12.90;7.18;;;;;;;;;;5101962;27;20056;-63
2022/03/27 04:53:10;;;;;;;13.52;6.97;;;;;;;;;;5080338;28;20151;-63
2022/03/27 04:55:37;;;;;;;11.60;6.03;;;;;;;;;;5099813;28;20151;-63
2022/03/27 04:58:06;;;;;;;12.65;6.43;;;;;;;;;;5092787;27;20055;-63
2022/03/27 05:00:33;;;;;;;9.88;5.55;;;;;;;;;;5103143;27;20079;-63
2022/03/27 05:02:59;;;;;;;10.93;6.05;;;;;;;;;;5098906;28;20056;-63
2022/03/27 05:05:26;;;;;;;13.52;7.03;;;;;;;;;;5096396;27;20516;-63
2022/03/27 05:07:53;;;;;;;24.40;7.82;;;;;;;;;;5106173;28;20581;-63
2022/03/27 05:10:20;;;;;;;12.10;6.03;;;;;;;;;;5096316;27;20085;-63
2022/03/27 05:12:46;;;;;;;13.73;6.43;;;;;;;;;;5101386;27;20672;-63
2022/03/27 05:15:12;;;;;;;12.82;6.82;;;;;;;;;;5101044;28;20094;-63
2022/03/27 05:18:05;;;;;;;11.73;5.95;;;;;;;;;;5093656;27;20173;-63
2022/03/27 05:20:31;;;;;;;12.57;6.65;;;;;;;;;;5080121;28;20062;-63
2022/03/27 05:23:01;;;;;;;14.48;6.88;;;;;;;;;;5099403;27;20514;-64
2022/03/27 05:25:27;;;;;;;13.27;6.32;;;;;;;;;;5102553;28;20167;-63
2022/03/27 05:27:55;;;;;;;13.10;7.20;;;;;;;;;;5091730;27;20599;-63
2022/03/27 05:30:22;;;;;;;12.52;6.88;;;;;;;;;;5104459;27;20054;-63
2022/03/27 05:32:49;;;;;;;13.70;6.63;;;;;;;;;;5096519;28;20052;-63
2022/03/27 05:35:15;;;;;;;12.80;6.70;;;;;;;;;;5097566;27;20207;-63
2022/03/27 05:37:42;;;;;;;11.93;6.20;;;;;;;;;;5104770;28;20060;-63
2022/03/27 05:40:10;;;;;;;11.85;6.72;;;;;;;;;;5088677;27;20148;-64
2022/03/27 05:42:36;;;;;;;11.77;6.30;;;;;;;;;;5094850;28;20147;-63
2022/03/27 05:45:03;;;;;;;12.25;6.18;;;;;;;;;;5095268;27;20910;-63
2022/03/27 05:47:29;;;;;;;13.50;6.90;;;;;;;;;;5095167;28;20496;-63
2022/03/27 05:49:56;;;;;;;11.10;6.25;;;;;;;;;;5104476;27;20056;-64
2022/03/27 05:52:23;;;;;;;10.88;5.78;;;;;;;;;;5093045;28;20063;-64
2022/03/27 05:54:49;;;;;;;10.63;6.13;;;;;;;;;;5100025;27;20598;-64
2022/03/27 05:57:18;;;;;;;12.57;6.60;;;;;;;;;;5098292;28;20082;-63
2022/03/27 05:59:48;;;;;;;12.50;6.55;;;;;;;;;;5104428;28;20510;-63
2022/03/27 06:02:15;;;;;;;12.55;5.88;;;;;;;;;;5078257;27;20055;-63
2022/03/27 06:04:42;;;;;;;11.20;5.85;;;;;;;;;;5101472;27;20063;-63
2022/03/27 06:07:09;;;;;;;12.73;6.15;;;;;;;;;;5098341;28;20058;-63
2022/03/27 06:09:36;;;;;;;11.30;6.72;;;;;;;;;;5094109;27;20052;-63
2022/03/27 06:12:03;;;;;;;14.10;6.28;;;;;;;;;;5105687;28;20643;-63
2022/03/27 06:14:29;;;;;;;12.32;6.00;;;;;;;;;;5093499;28;20158;-63
2022/03/27 06:16:56;;;;;;;13.98;6.05;;;;;;;;;;5098816;27;20176;-64
2022/03/27 06:19:22;;;;;;;10.68;6.18;;;;;;;;;;5094252;28;20502;-64
2022/03/27 06:21:49;;;;;;;11.02;6.47;;;;;;;;;;5092224;27;20151;-63
2022/03/27 06:24:15;;;;;;;10.52;5.85;;;;;;;;;;5075008;28;20048;-63
2022/03/27 06:26:42;;;;;;;12.10;6.88;;;;;;;;;;5101132;27;20053;-63
2022/03/27 06:29:09;;;;;;;11.45;6.22;;;;;;;;;;5099039;28;20143;-63
2022/03/27 06:31:36;;;;;;;11.18;6.40;;;;;;;;;;5092784;27;20052;-63
2022/03/27 06:34:03;;;;;;;12.60;7.07;;;;;;;;;;5104443;28;20129;-62
2022/03/27 06:36:30;;;;;;;12.73;6.60;;;;;;;;;;5078477;28;20131;-63
2022/03/27 06:38:56;;;;;;;12.73;6.55;;;;;;;;;;5098333;27;20363;-63
2022/03/27 06:41:22;;;;;;;12.57;7.13;;;;;;;;;;5100804;28;20512;-63
2022/03/27 06:43:49;;;;;;;13.82;7.35;;;;;;;;;;5091180;27;20057;-63
2022/03/27 06:46:17;;;;;;;11.98;6.70;;;;;;;;;;5074068;28;20058;-63
2022/03/27 06:48:44;;;;;;;13.48;6.60;;;;;;;;;;5100306;27;20079;-63
2022/03/27 06:51:10;;;;;;;13.23;6.78;;;;;;;;;;5096704;28;20151;-63
2022/03/27 06:53:37;;;;;;;11.52;6.35;;;;;;;;;;5097176;28;20128;-63
2022/03/27 06:56:04;;;;;;;12.38;6.13;;;;;;;;;;5090785;27;20148;-63
2022/03/27 06:58:30;;;;;;;10.93;5.72;;;;;;;;;;5101828;27;20116;-63
2022/03/27 07:03:42;;;;;;;12.85;6.68;;;;;;;;;;5092669;27;20048;-63
2022/03/27 07:06:08;;;;;;;12.35;6.03;;;;;;;;;;5104958;28;20059;-63
2022/03/27 07:08:35;;;;;;;12.27;6.63;;;;;;;;;;5084796;28;20180;-63
2022/03/27 07:11:01;;;;;;;11.23;6.53;;;;;;;;;;5087417;28;20297;-63
2022/03/27 07:13:27;;;;;;;11.82;5.90;;;;;;;;;;5107419;27;20059;-63
2022/03/27 07:15:54;;;;;;;11.77;6.45;;;;;;;;;;5090216;27;20059;-63
2022/03/27 07:18:20;;;;;;;11.55;6.32;;;;;;;;;;5103668;27;20053;-63
2022/03/27 07:20:47;;;;;;;10.65;6.30;;;;;;;;;;5093189;28;20044;-63
2022/03/27 07:23:14;;;;;;;10.35;6.18;;;;;;;;;;5095672;27;20243;-63
2022/03/27 07:25:42;;;;;;;11.48;5.97;;;;;;;;;;5091986;28;20152;-63
2022/03/27 07:28:09;;;;;;;10.83;5.97;;;;;;;;;;5102576;28;20168;-63
2022/03/27 07:30:36;;;;;;;13.05;6.63;;;;;;;;;;5101483;27;20139;-63
2022/03/27 07:33:03;;;;;;;12.95;6.53;;;;;;;;;;5096914;28;20139;-63
2022/03/27 07:35:33;;;;;;;12.15;6.35;;;;;;;;;;5093414;27;20092;-63
2022/03/27 07:38:01;;;;;;;10.68;5.32;;;;;;;;;;5103652;28;20115;-63
2022/03/27 07:40:28;;;;;;;12.15;5.50;;;;;;;;;;5092605;28;20083;-63
2022/03/27 07:42:55;;;;;;;11.60;5.32;;;;;;;;;;5091131;27;20610;-63
2022/03/27 07:45:22;;;;;;;10.57;5.63;;;;;;;;;;5091519;28;20062;-64
2022/03/27 07:47:49;;;;;;;10.90;4.78;;;;;;;;;;5090827;27;20127;-63
2022/03/27 07:50:17;;;;;;;10.68;5.65;;;;;;;;;;5074166;28;20052;-64
2022/03/27 07:52:44;;;;;;;10.57;5.57;;;;;;;;;;5099621;27;20057;-63
2022/03/27 07:55:13;;;;;;;11.25;5.03;;;;;;;;;;5087062;28;20080;-63
2022/03/27 07:57:40;;;;;;;11.15;5.15;;;;;;;;;;5102385;28;20136;-63
2022/03/27 08:00:10;;;;;;;12.10;5.35;;;;;;;;;;5087339;27;20102;-63
2022/03/27 08:02:37;;;;;;;10.75;5.68;;;;;;;;;;5093138;28;20056;-64
2022/03/27 08:05:04;;;;;;;11.60;6.13;;;;;;;;;;5096668;27;20056;-64
2022/03/27 08:07:31;;;;;;;9.35;5.05;;;;;;;;;;5101189;28;20080;-63
2022/03/27 08:09:58;;;;;;;10.30;5.55;;;;;;;;;;5106282;27;20083;-64
2022/03/27 08:12:25;;;;;;;9.75;5.25;;;;;;;;;;5106840;27;20417;-63
2022/03/27 08:14:52;;;;;;;12.07;5.90;;;;;;;;;;5110461;27;20142;-64
2022/03/27 08:17:18;;;;;;;13.85;5.82;;;;;;;;;;5086899;27;20063;-64
2022/03/27 08:19:46;;;;;;;14.90;5.65;;;;;;;;;;5102125;28;20474;-64
2022/03/27 08:22:13;;;;;;;12.10;5.68;;;;;;;;;;5093216;27;20047;-63
2022/03/27 08:24:39;;;;;;;8.43;4.55;;;;;;;;;;5110151;27;20581;-63
2022/03/27 08:27:07;;;;;;;11.88;5.93;;;;;;;;;;5099930;27;20053;-63
2022/03/27 08:29:35;;;;;;;13.88;6.03;;;;;;;;;;5101534;28;20062;-64
2022/03/27 08:32:02;;;;;;;12.07;5.20;;;;;;;;;;5093728;27;20045;-64
2022/03/27 08:34:30;;;;;;;14.23;5.70;;;;;;;;;;5096352;27;20143;-65
2022/03/27 08:36:57;;;;;;;14.32;5.95;;;;;;;;;;5100289;27;20140;-63
2022/03/27 08:39:24;;;;;;;12.35;4.70;;;;;;;;;;5103150;28;20059;-63
2022/03/27 08:41:51;;;;;;;21.75;8.43;;;;;;;;;;5092922;27;20048;-64
2022/03/27 08:44:19;;;;;;;23.25;8.85;;;;;;;;;;5105505;27;20052;-64
2022/03/27 08:46:46;;;;;;;16.65;5.85;;;;;;;;;;5097598;28;20905;-64
2022/03/27 08:49:15;;;;;;;13.23;4.80;;;;;;;;;;5098157;27;20156;-64
2022/03/27 08:51:47;;;;;;;10.32;4.50;;;;;;;;;;5076453;28;20060;-63
2022/03/27 08:54:16;;;;;;;11.43;5.00;;;;;;;;;;5106552;28;20148;-64
2022/03/27 08:56:46;;;;;;;8.50;4.07;;;;;;;;;;5095971;28;20062;-64
2022/03/27 08:59:13;;;;;;;10.20;4.57;;;;;;;;;;5097256;27;20617;-65
2022/03/27 09:01:39;;;;;;;11.68;4.78;;;;;;;;;;5104336;28;20163;-64
2022/03/27 09:04:06;;;;;;;11.02;4.50;;;;;;;;;;5093113;27;20060;-64
2022/03/27 09:06:33;;;;;;;10.57;4.65;;;;;;;;;;5103557;27;20052;-64
2022/03/27 09:08:59;;;;;;;10.30;5.05;;;;;;;;;;5092257;28;20524;-64
2022/03/27 09:11:30;;;;;;;20.52;4.63;;;;;;;;;;5096140;27;20103;-64
2022/03/27 09:13:56;;;;;;;10.73;4.45;;;;;;;;;;5105698;28;20060;-64
2022/03/27 09:16:23;;;;;;;12.10;4.60;;;;;;;;;;5093421;28;20143;-64
2022/03/27 09:18:55;;;;;;;11.10;4.60;;;;;;;;;;5100454;27;20198;-64
2022/03/27 09:21:22;;;;;;;11.43;4.65;;;;;;;;;;5101562;28;20837;-64
2022/03/27 09:23:52;;;;;;;10.32;4.75;;;;;;;;;;5091710;27;20519;-64
2022/03/27 09:26:20;;;;;;;11.95;4.63;;;;;;;;;;5077431;28;20052;-64
2022/03/27 09:28:52;;;;;;;9.77;4.38;;;;;;;;;;5100868;27;20083;-65
2022/03/27 09:31:26;;;;;;;13.60;4.93;;;;;;;;;;5101338;28;20056;-64
2022/03/27 09:33:53;;;;;;;11.32;4.90;;;;;;;;;;5108116;27;20056;-64
2022/03/27 09:36:23;;;;;;;16.27;5.18;;;;;;;;;;5093501;28;20094;-65
2022/03/27 09:39:07;;;;;;;11.20;4.93;;;;;;;;;;5100464;27;21002;-65
2022/03/27 09:41:58;;;;;;;12.25;4.60;;;;;;;;;;5094007;28;20085;-64
2022/03/27 09:44:30;;;;;;;12.55;4.63;;;;;;;;;;5078099;28;20056;-65
2022/03/27 09:47:01;;;;;;;11.57;5.10;;;;;;;;;;5099416;27;20083;-65
2022/03/27 09:49:31;;;;;;;11.40;4.65;;;;;;;;;;5101411;28;20068;-64
2022/03/27 09:51:57;;;;;;;15.35;5.13;;;;;;;;;;5092241;27;20147;-65
2022/03/27 09:54:24;;;;;;;12.20;5.18;;;;;;;;;;5104028;27;20068;-64
2022/03/27 09:56:51;;;;;;;15.55;4.55;;;;;;;;;;5096981;28;20079;-64
2022/03/27 09:59:28;;;;;;;12.05;4.65;;;;;;;;;;5086150;27;20135;-64
2022/03/27 10:01:54;;;;;;;9.85;4.18;;;;;;;;;;5101435;28;20139;-65
2022/03/27 10:04:21;;;;;;;11.60;3.88;;;;;;;;;;5093632;28;20056;-64
2022/03/27 10:06:47;;;;;;;11.35;3.95;;;;;;;;;;5100418;27;20597;-64
2022/03/27 10:09:13;;;;;;;9.27;4.00;;;;;;;;;;5100895;28;20474;-66
2022/03/27 10:11:42;;;;;;;9.23;3.83;;;;;;;;;;5092659;27;20110;-66
2022/03/27 10:14:08;;;;;;;16.55;4.88;;;;;;;;;;5104811;28;20084;-65
2022/03/27 10:16:36;;;;;;;12.30;4.57;;;;;;;;;;5088503;28;20470;-65
2022/03/27 10:19:13;;;;;;;10.07;4.30;;;;;;;;;;5097619;27;20084;-65
2022/03/27 10:21:42;;;;;;;8.30;3.65;;;;;;;;;;5103940;28;20135;-64
2022/03/27 10:24:11;;;;;;;12.13;3.67;;;;;;;;;;5091143;27;20061;-65
2022/03/27 10:26:38;;;;;;;12.35;4.40;;;;;;;;;;5101741;27;20056;-67
2022/03/27 10:29:05;;;;;;;12.27;3.97;;;;;;;;;;5097942;28;20523;-64
2022/03/27 10:31:32;;;;;;;12.65;4.38;;;;;;;;;;5093909;27;20063;-63
2022/03/27 10:34:00;;;;;;;8.50;3.10;;;;;;;;;;5072438;28;20066;-64
2022/03/27 10:36:31;;;;;;;15.63;4.22;;;;;;;;;;5076961;28;20518;-64
2022/03/27 10:39:04;;;;;;;12.77;4.50;;;;;;;;;;5097708;27;20061;-64
2022/03/27 10:41:36;;;;;;;7.78;3.30;;;;;;;;;;5101071;28;20117;-64
2022/03/27 10:44:26;;;;;;;16.38;4.03;;;;;;;;;;5091958;27;20060;-64
2022/03/27 10:47:12;;;;;;;12.55;4.72;;;;;;;;;;5095606;28;20048;-64
2022/03/27 10:49:38;;;;;;;12.82;4.05;;;;;;;;;;5091635;28;20084;-64
2022/03/27 10:52:06;;;;;;;10.98;4.40;;;;;;;;;;5103322;28;20088;-64
2022/03/27 10:54:52;;;;;;;11.93;4.13;;;;;;;;;;5092992;28;20498;-64
2022/03/27 10:57:32;;;;;;;11.48;4.30;;;;;;;;;;5094568;27;20450;-64
2022/03/27 10:59:59;;;;;;;12.82;4.50;;;;;;;;;;5098002;28;20083;-64
2022/03/27 11:02:44;;;;;;;10.32;3.72;;;;;;;;;;5107747;27;20135;-64
2022/03/27 11:05:25;;;;;;;10.55;4.03;;;;;;;;;;5095960;28;20059;-64
2022/03/27 11:08:12;;;;;;;12.57;4.05;;;;;;;;;;5088651;28;20497;-64
2022/03/27 11:10:39;;;;;;;10.45;3.60;;;;;;;;;;5099790;27;20132;-64
2022/03/27 11:13:36;;;;;;;9.40;3.90;;;;;;;;;;5097586;28;20827;-64
2022/03/27 11:16:13;;;;;;;12.10;3.80;;;;;;;;;;5084805;28;20049;-64
2022/03/27 11:18:41;;;;;;;11.10;4.60;;;;;;;;;;5100090;27;20122;-64
2022/03/27 11:21:09;;;;;;;11.55;4.03;;;;;;;;;;5098817;28;20091;-64
2022/03/27 11:23:40;;;;;;;15.45;4.55;;;;;;;;;;5087597;27;20081;-64
2022/03/27 11:26:18;;;;;;;11.57;3.80;;;;;;;;;;5102857;28;20553;-64
2022/03/27 11:28:49;;;;;;;14.65;3.67;;;;;;;;;;5094147;28;20917;-64
2022/03/27 11:31:17;;;;;;;14.15;3.40;;;;;;;;;;5087715;27;20633;-64
2022/03/27 11:33:47;;;;;;;;;;;;;;;;;;5099322;28;20056;-64
2022/03/27 11:36:16;;;;;;;9.25;3.13;;;;;;;;;;5089345;27;42423;-64
2022/03/27 11:38:49;;;;;;;11.52;3.55;;;;;;;;;;5099620;27;20144;-64
2022/03/27 11:41:21;;;;;;;11.95;3.97;;;;;;;;;;5077874;28;20082;-64
2022/03/27 11:43:47;;;;;;;8.85;3.47;;;;;;;;;;5100035;28;20048;-64
2022/03/27 11:46:27;;;;;;;9.57;3.75;;;;;;;;;;5090597;27;20102;-64
2022/03/27 11:48:54;;;;;;;11.05;3.85;;;;;;;;;;5100159;27;20144;-64
2022/03/27 11:51:20;;;;;;;10.60;3.28;;;;;;;;;;5103899;28;20865;-64
2022/03/27 11:53:47;;;;;;;9.70;3.50;;;;;;;;;;5093780;27;20067;-64
2022/03/27 11:56:13;;;;;;;8.80;3.33;;;;;;;;;;5106829;28;20195;-64
2022/03/27 11:58:40;;;;;;;9.40;3.38;;;;;;;;;;5096680;28;20055;-64
2022/03/27 12:01:08;;;;;;;9.43;3.10;;;;;;;;;;5100081;27;20070;-64
2022/03/27 12:03:36;;;;;;;9.88;3.15;;;;;;;;;;5105609;28;20109;-64
2022/03/27 12:06:04;;;;;;;11.57;3.90;;;;;;;;;;5093048;27;20044;-64
2022/03/27 12:08:35;;;;;;;14.55;3.78;;;;;;;;;;5105283;27;20151;-64
2022/03/27 12:11:06;;;;;;;7.75;3.03;;;;;;;;;;5099770;28;20052;-64
2022/03/27 12:13:36;;;;;;;14.57;2.95;;;;;;;;;;5094925;27;20064;-64
2022/03/27 12:16:03;;;;;;;13.18;3.28;;;;;;;;;;5077948;28;20136;-63
2022/03/27 12:18:31;;;;;;;6.53;2.13;;;;;;;;;;5104104;27;20585;-64
2022/03/27 12:20:58;;;;;;;9.43;2.22;;;;;;;;;;5098241;28;20139;-65
2022/03/27 12:23:26;;;;;;;6.82;2.08;;;;;;;;;;5096459;27;20052;-65
2022/03/27 12:25:59;;;;;;;10.25;2.22;;;;;;;;;;5106639;28;20147;-65
2022/03/27 12:31:24;;;;;;;6.35;1.90;;;;;;;;;;5091886;27;20041;-65
2022/03/27 12:33:52;;;;;;;14.80;2.35;;;;;;;;;;5102572;28;20556;-65
2022/03/27 12:36:21;;;;;;;6.00;1.60;;;;;;;;;;5093851;28;20918;-65
2022/03/27 12:38:47;;;;;;;8.38;1.63;;;;;;;;;;5101281;28;21312;-65
2022/03/27 12:41:14;;;;;;;7.95;2.03;;;;;;;;;;5101609;28;20087;-65
2022/03/27 12:43:56;;;;;;;10.07;1.70;;;;;;;;;;5092717;27;20052;-65
2022/03/27 12:46:23;;;;;;;8.40;1.80;;;;;;;;;;5078188;28;20495;-65
2022/03/27 12:48:56;;;;;;;7.60;2.40;;;;;;;;;;5093728;27;20176;-65
2022/03/27 12:51:23;;;;;;;8.13;2.03;;;;;;;;;;5094956;28;20138;-65
2022/03/27 12:53:59;;;;;;;8.55;2.42;;;;;;;;;;5092219;27;20052;-65
2022/03/27 12:56:25;;;;;;;6.43;1.50;;;;;;;;;;5104408;27;20151;-65
2022/03/27 12:58:51;;;;;;;7.63;2.00;;;;;;;;;;5097493;28;20048;-65
2022/03/27 13:01:19;;;;;;;5.93;2.25;;;;;;;;;;5096846;27;20052;-63
2022/03/27 13:03:57;;;;;;;5.25;1.40;;;;;;;;;;5105706;28;20084;-64
2022/03/27 13:06:31;;;;;;;28.25;2.40;;;;;;;;;;5078452;28;20175;-64
2022/03/27 13:08:57;;;;;;;7.80;2.45;;;;;;;;;;5099470;27;20084;-64
2022/03/27 13:11:24;;;;;;;6.70;1.92;;;;;;;;;;5101645;28;20074;-65
2022/03/27 13:13:57;;;;;;;6.50;1.70;;;;;;;;;;5092037;27;20160;-65
2022/03/27 13:16:24;;;;;;;8.70;2.05;;;;;;;;;;5103771;27;20085;-65
2022/03/27 13:19:07;;;;;;;7.15;1.83;;;;;;;;;;5096711;28;20483;-65
2022/03/27 13:21:36;;;;;;;7.43;1.83;;;;;;;;;;5094333;27;21072;-65
2022/03/27 13:24:09;;;;;;;9.45;1.90;;;;;;;;;;5090391;28;20071;-65
2022/03/27 13:26:38;;;;;;;6.68;1.88;;;;;;;;;;5102502;27;20075;-65
2022/03/27 13:29:04;;;;;;;10.18;2.22;;;;;;;;;;5098555;28;20455;-65
2022/03/27 13:31:31;;;;;;;8.25;1.90;;;;;;;;;;5095048;27;20063;-65
2022/03/27 13:33:57;;;;;;;8.80;2.05;;;;;;;;;;5095424;28;20059;-64
2022/03/27 13:36:24;;;;;;;9.95;1.90;;;;;;;;;;5102795;27;20536;-65
2022/03/27 13:38:50;;;;;;;8.13;2.42;;;;;;;;;;5096287;28;20485;-65
2022/03/27 13:44:01;;;;;;;11.75;2.17;;;;;;;;;;5091798;27;20143;-65
2022/03/27 13:46:28;;;;;;;7.95;2.38;;;;;;;;;;5102265;27;20067;-65
2022/03/27 13:48:54;;;;;;;10.60;1.90;;;;;;;;;;5096558;28;20109;-65
2022/03/27 13:51:21;;;;;;;10.90;2.72;;;;;;;;;;5095728;27;20059;-64
2022/03/27 13:53:47;;;;;;;8.45;2.10;;;;;;;;;;5104099;28;20059;-64
2022/03/27 13:56:13;;;;;;;10.25;2.20;;;;;;;;;;5087204;27;20066;-64
2022/03/27 13:58:40;;;;;;;11.35;2.15;;;;;;;;;;5081911;28;20143;-64
2022/03/27 14:01:06;;;;;;;12.40;2.38;;;;;;;;;;5097249;27;20051;-64
2022/03/27 14:03:33;;;;;;;9.25;2.20;;;;;;;;;;5102864;28;20044;-65
2022/03/27 14:06:00;;;;;;;13.75;3.00;;;;;;;;;;5091009;27;20094;-64
2022/03/27 14:08:26;;;;;;;11.88;2.30;;;;;;;;;;5102023;28;20908;-64
2022/03/27 14:10:53;;;;;;;11.02;2.72;;;;;;;;;;5094883;28;20166;-64
2022/03/27 14:13:19;;;;;;;10.25;2.47;;;;;;;;;;5092942;27;20055;-64
2022/03/27 14:15:45;;;;;;;10.63;2.50;;;;;;;;;;5100338;28;20472;-65
2022/03/27 14:18:12;;;;;;;8.82;2.42;;;;;;;;;;5091131;27;20133;-64
2022/03/27 14:20:39;;;;;;;9.23;2.60;;;;;;;;;;5100965;27;20076;-65
2022/03/27 14:23:06;;;;;;;10.57;2.70;;;;;;;;;;5098183;28;20056;-64
2022/03/27 14:25:32;;;;;;;11.38;2.53;;;;;;;;;;5093684;27;20399;-65
2022/03/27 14:27:59;;;;;;;10.05;2.72;;;;;;;;;;5104294;28;20060;-65
2022/03/27 14:30:25;;;;;;;13.20;2.80;;;;;;;;;;5085410;28;20493;-65
2022/03/27 14:32:52;;;;;;;14.63;2.55;;;;;;;;;;5080106;28;20079;-65
2022/03/27 14:35:18;;;;;;;8.90;2.10;;;;;;;;;;5092504;28;20067;-65
2022/03/27 14:37:44;;;;;;;12.15;2.50;;;;;;;;;;5090960;27;20045;-65
2022/03/27 14:40:12;;;;;;;9.32;2.30;;;;;;;;;;5104344;28;20045;-64
2022/03/27 14:42:39;;;;;;;9.70;2.53;;;;;;;;;;5093733;28;20142;-64
2022/03/27 14:45:06;;;;;;;13.32;2.63;;;;;;;;;;5096795;27;20144;-65
2022/03/27 14:47:34;;;;;;;14.90;3.20;;;;;;;;;;5092994;28;20056;-65